sensor_id;sensor_type;location;lat;lon;timestamp;P1;durP1;ratioP1;P2;durP2;ratioP2
15454;SDS011;21057;51.024;7.540;2022-09-01T00:00:13;14.40;;;13.50;;
15454;SDS011;21057;51.024;7.540;2022-09-01T00:02:42;13.73;;;13.02;;
15454;SDS011;21057;51.024;7.540;2022-09-01T00:05:11;13.55;;;12.77;;
15454;SDS011;21057;51.024;7.540;2022-09-01T00:07:38;13.85;;;12.98;;
15454;SDS011;21057;51.024;7.540;2022-09-01T00:10:06;13.45;;;12.75;;
15454;SDS011;21057;51.024;7.540;2022-09-01T00:12:34;14.43;;;13.35;;
15454;SDS011;21057;51.024;7.540;2022-09-01T00:15:02;14.57;;;13.68;;
15454;SDS011;21057;51.024;7.540;2022-09-01T00:17:30;14.35;;;13.57;;
15454;SDS011;21057;51.024;7.540;2022-09-01T00:19:57;14.77;;;13.88;;
15454;SDS011;21057;51.024;7.540;2022-09-01T00:22:26;14.48;;;13.68;;
15454;SDS011;21057;51.024;7.540;2022-09-01T00:24:53;14.68;;;13.60;;
15454;SDS011;21057;51.024;7.540;2022-09-01T00:27:20;14.52;;;13.73;;
15454;SDS011;21057;51.024;7.540;2022-09-01T00:29:47;14.23;;;13.40;;
15454;SDS011;21057;51.024;7.540;2022-09-01T00:32:14;14.60;;;13.70;;
15454;SDS011;21057;51.024;7.540;2022-09-01T00:34:47;14.80;;;13.98;;
15454;SDS011;21057;51.024;7.540;2022-09-01T00:37:14;14.00;;;13.30;;
15454;SDS011;21057;51.024;7.540;2022-09-01T00:39:42;14.02;;;13.23;;
15454;SDS011;21057;51.024;7.540;2022-09-01T00:42:09;14.30;;;13.15;;
15454;SDS011;21057;51.024;7.540;2022-09-01T00:44:36;14.77;;;13.57;;
15454;SDS011;21057;51.024;7.540;2022-09-01T00:47:03;14.45;;;13.55;;
15454;SDS011;21057;51.024;7.540;2022-09-01T00:49:31;13.93;;;13.13;;
15454;SDS011;21057;51.024;7.540;2022-09-01T00:52:04;13.60;;;12.80;;
15454;SDS011;21057;51.024;7.540;2022-09-01T00:54:35;13.98;;;13.18;;
15454;SDS011;21057;51.024;7.540;2022-09-01T00:57:06;13.93;;;13.13;;
15454;SDS011;21057;51.024;7.540;2022-09-01T00:59:37;14.45;;;13.55;;
15454;SDS011;21057;51.024;7.540;2022-09-01T01:02:08;13.65;;;12.85;;
15454;SDS011;21057;51.024;7.540;2022-09-01T01:04:36;14.25;;;13.48;;
15454;SDS011;21057;51.024;7.540;2022-09-01T01:07:05;14.95;;;13.80;;
15454;SDS011;21057;51.024;7.540;2022-09-01T01:09:34;14.40;;;13.52;;
15454;SDS011;21057;51.024;7.540;2022-09-01T01:12:08;15.07;;;13.98;;
15454;SDS011;21057;51.024;7.540;2022-09-01T01:14:42;14.13;;;13.40;;
15454;SDS011;21057;51.024;7.540;2022-09-01T01:17:11;14.02;;;13.23;;
15454;SDS011;21057;51.024;7.540;2022-09-01T01:19:39;13.60;;;12.90;;
15454;SDS011;21057;51.024;7.540;2022-09-01T01:22:29;14.20;;;13.40;;
15454;SDS011;21057;51.024;7.540;2022-09-01T01:25:21;14.30;;;13.50;;
15454;SDS011;21057;51.024;7.540;2022-09-01T01:27:50;13.90;;;13.10;;
15454;SDS011;21057;51.024;7.540;2022-09-01T01:30:18;14.07;;;13.27;;
15454;SDS011;21057;51.024;7.540;2022-09-01T01:32:47;13.82;;;13.02;;
15454;SDS011;21057;51.024;7.540;2022-09-01T01:35:16;13.82;;;13.13;;
15454;SDS011;21057;51.024;7.540;2022-09-01T01:37:45;13.73;;;13.00;;
15454;SDS011;21057;51.024;7.540;2022-09-01T01:40:13;13.93;;;13.13;;
15454;SDS011;21057;51.024;7.540;2022-09-01T01:42:43;13.88;;;13.07;;
15454;SDS011;21057;51.024;7.540;2022-09-01T01:45:19;14.20;;;13.40;;
15454;SDS011;21057;51.024;7.540;2022-09-01T01:47:48;14.10;;;13.30;;
15454;SDS011;21057;51.024;7.540;2022-09-01T01:50:17;14.32;;;13.52;;
15454;SDS011;21057;51.024;7.540;2022-09-01T01:52:44;13.70;;;12.90;;
15454;SDS011;21057;51.024;7.540;2022-09-01T01:55:14;14.52;;;13.52;;
15454;SDS011;21057;51.024;7.540;2022-09-01T01:57:45;14.13;;;13.23;;
15454;SDS011;21057;51.024;7.540;2022-09-01T02:00:14;14.20;;;13.40;;
15454;SDS011;21057;51.024;7.540;2022-09-01T02:07:59;13.77;;;12.98;;
15454;SDS011;21057;51.024;7.540;2022-09-01T02:10:30;13.77;;;12.98;;
15454;SDS011;21057;51.024;7.540;2022-09-01T02:13:10;14.23;;;13.35;;
15454;SDS011;21057;51.024;7.540;2022-09-01T02:15:42;14.00;;;13.20;;
15454;SDS011;21057;51.024;7.540;2022-09-01T02:18:11;14.23;;;13.43;;
15454;SDS011;21057;51.024;7.540;2022-09-01T02:20:40;13.77;;;12.98;;
15454;SDS011;21057;51.024;7.540;2022-09-01T02:23:08;13.70;;;12.90;;
15454;SDS011;21057;51.024;7.540;2022-09-01T02:25:36;13.93;;;12.93;;
15454;SDS011;21057;51.024;7.540;2022-09-01T02:28:10;13.68;;;12.88;;
15454;SDS011;21057;51.024;7.540;2022-09-01T02:30:40;13.60;;;12.70;;
15454;SDS011;21057;51.024;7.540;2022-09-01T02:35:56;13.60;;;12.80;;
15454;SDS011;21057;51.024;7.540;2022-09-01T02:38:25;13.77;;;12.98;;
15454;SDS011;21057;51.024;7.540;2022-09-01T02:40:54;14.02;;;13.13;;
15454;SDS011;21057;51.024;7.540;2022-09-01T02:43:24;13.98;;;13.18;;
15454;SDS011;21057;51.024;7.540;2022-09-01T02:45:53;14.00;;;13.10;;
15454;SDS011;21057;51.024;7.540;2022-09-01T02:48:24;13.70;;;12.90;;
15454;SDS011;21057;51.024;7.540;2022-09-01T02:50:56;13.98;;;13.05;;
15454;SDS011;21057;51.024;7.540;2022-09-01T02:53:26;13.70;;;12.90;;
15454;SDS011;21057;51.024;7.540;2022-09-01T02:55:54;13.75;;;12.95;;
15454;SDS011;21057;51.024;7.540;2022-09-01T02:58:25;13.80;;;13.00;;
15454;SDS011;21057;51.024;7.540;2022-09-01T03:00:52;13.77;;;12.98;;
15454;SDS011;21057;51.024;7.540;2022-09-01T03:03:20;13.90;;;13.05;;
15454;SDS011;21057;51.024;7.540;2022-09-01T03:05:49;14.23;;;13.30;;
15454;SDS011;21057;51.024;7.540;2022-09-01T03:08:19;13.93;;;13.07;;
15454;SDS011;21057;51.024;7.540;2022-09-01T03:10:46;13.45;;;12.75;;
15454;SDS011;21057;51.024;7.540;2022-09-01T03:13:15;13.95;;;12.90;;
15454;SDS011;21057;51.024;7.540;2022-09-01T03:15:46;14.05;;;13.25;;
15454;SDS011;21057;51.024;7.540;2022-09-01T03:18:14;13.00;;;12.30;;
15454;SDS011;21057;51.024;7.540;2022-09-01T03:20:42;12.70;;;12.00;;
15454;SDS011;21057;51.024;7.540;2022-09-01T03:23:12;13.40;;;12.60;;
15454;SDS011;21057;51.024;7.540;2022-09-01T03:25:48;13.18;;;12.48;;
15454;SDS011;21057;51.024;7.540;2022-09-01T03:28:15;13.35;;;12.45;;
15454;SDS011;21057;51.024;7.540;2022-09-01T03:30:43;13.00;;;12.30;;
15454;SDS011;21057;51.024;7.540;2022-09-01T03:33:14;13.60;;;12.70;;
15454;SDS011;21057;51.024;7.540;2022-09-01T03:35:52;13.60;;;12.80;;
15454;SDS011;21057;51.024;7.540;2022-09-01T03:38:20;13.30;;;12.60;;
15454;SDS011;21057;51.024;7.540;2022-09-01T03:40:48;13.75;;;13.00;;
15454;SDS011;21057;51.024;7.540;2022-09-01T03:43:16;13.43;;;12.60;;
15454;SDS011;21057;51.024;7.540;2022-09-01T03:45:49;13.70;;;12.90;;
15454;SDS011;21057;51.024;7.540;2022-09-01T03:48:18;13.25;;;12.55;;
15454;SDS011;21057;51.024;7.540;2022-09-01T03:50:45;13.93;;;13.13;;
15454;SDS011;21057;51.024;7.540;2022-09-01T03:53:30;13.90;;;13.10;;
15454;SDS011;21057;51.024;7.540;2022-09-01T03:55:58;13.90;;;13.00;;
15454;SDS011;21057;51.024;7.540;2022-09-01T03:58:28;13.63;;;12.65;;
15454;SDS011;21057;51.024;7.540;2022-09-01T04:01:02;13.65;;;12.85;;
15454;SDS011;21057;51.024;7.540;2022-09-01T04:03:30;14.05;;;13.05;;
15454;SDS011;21057;51.024;7.540;2022-09-01T04:05:59;14.02;;;13.23;;
15454;SDS011;21057;51.024;7.540;2022-09-01T04:08:27;13.88;;;13.07;;
15454;SDS011;21057;51.024;7.540;2022-09-01T04:10:56;14.25;;;13.48;;
15454;SDS011;21057;51.024;7.540;2022-09-01T04:13:25;13.60;;;12.68;;
15454;SDS011;21057;51.024;7.540;2022-09-01T04:15:54;13.18;;;12.38;;
15454;SDS011;21057;51.024;7.540;2022-09-01T04:18:23;13.55;;;12.75;;
15454;SDS011;21057;51.024;7.540;2022-09-01T04:20:50;13.77;;;12.98;;
15454;SDS011;21057;51.024;7.540;2022-09-01T04:23:19;13.50;;;12.50;;
15454;SDS011;21057;51.024;7.540;2022-09-01T04:25:51;13.55;;;12.75;;
15454;SDS011;21057;51.024;7.540;2022-09-01T04:28:29;13.30;;;12.60;;
15454;SDS011;21057;51.024;7.540;2022-09-01T04:30:58;13.60;;;12.90;;
15454;SDS011;21057;51.024;7.540;2022-09-01T04:33:31;14.02;;;13.23;;
15454;SDS011;21057;51.024;7.540;2022-09-01T04:36:05;13.57;;;12.80;;
15454;SDS011;21057;51.024;7.540;2022-09-01T04:38:39;14.13;;;13.32;;
15454;SDS011;21057;51.024;7.540;2022-09-01T04:41:06;12.88;;;12.18;;
15454;SDS011;21057;51.024;7.540;2022-09-01T04:43:33;13.70;;;12.90;;
15454;SDS011;21057;51.024;7.540;2022-09-01T04:46:00;13.48;;;12.73;;
15454;SDS011;21057;51.024;7.540;2022-09-01T04:48:28;13.98;;;13.05;;
15454;SDS011;21057;51.024;7.540;2022-09-01T04:50:57;14.00;;;13.20;;
15454;SDS011;21057;51.024;7.540;2022-09-01T04:53:24;13.30;;;12.60;;
15454;SDS011;21057;51.024;7.540;2022-09-01T04:55:51;15.00;;;14.10;;
15454;SDS011;21057;51.024;7.540;2022-09-01T04:58:19;14.52;;;13.68;;
15454;SDS011;21057;51.024;7.540;2022-09-01T05:00:47;14.23;;;13.43;;
15454;SDS011;21057;51.024;7.540;2022-09-01T05:03:16;13.93;;;13.13;;
15454;SDS011;21057;51.024;7.540;2022-09-01T05:05:45;14.40;;;13.60;;
15454;SDS011;21057;51.024;7.540;2022-09-01T05:08:14;14.93;;;13.73;;
15454;SDS011;21057;51.024;7.540;2022-09-01T05:10:43;13.95;;;13.15;;
15454;SDS011;21057;51.024;7.540;2022-09-01T05:13:13;13.90;;;13.05;;
15454;SDS011;21057;51.024;7.540;2022-09-01T05:15:42;15.95;;;15.05;;
15454;SDS011;21057;51.024;7.540;2022-09-01T05:21:04;14.85;;;14.02;;
15454;SDS011;21057;51.024;7.540;2022-09-01T05:23:36;15.38;;;14.32;;
15454;SDS011;21057;51.024;7.540;2022-09-01T05:26:04;14.68;;;13.88;;
15454;SDS011;21057;51.024;7.540;2022-09-01T05:28:41;14.48;;;13.57;;
15454;SDS011;21057;51.024;7.540;2022-09-01T05:31:08;14.35;;;13.48;;
15454;SDS011;21057;51.024;7.540;2022-09-01T05:33:36;14.13;;;13.32;;
15454;SDS011;21057;51.024;7.540;2022-09-01T05:36:10;15.10;;;14.30;;
15454;SDS011;21057;51.024;7.540;2022-09-01T05:38:39;14.00;;;13.20;;
15454;SDS011;21057;51.024;7.540;2022-09-01T05:41:07;14.70;;;13.90;;
15454;SDS011;21057;51.024;7.540;2022-09-01T05:43:40;14.48;;;13.68;;
15454;SDS011;21057;51.024;7.540;2022-09-01T05:46:10;14.38;;;13.63;;
15454;SDS011;21057;51.024;7.540;2022-09-01T05:48:41;14.07;;;13.20;;
15454;SDS011;21057;51.024;7.540;2022-09-01T05:51:09;14.27;;;13.38;;
15454;SDS011;21057;51.024;7.540;2022-09-01T05:53:41;14.07;;;13.27;;
15454;SDS011;21057;51.024;7.540;2022-09-01T05:56:09;14.55;;;13.65;;
15454;SDS011;21057;51.024;7.540;2022-09-01T05:58:39;15.00;;;14.13;;
15454;SDS011;21057;51.024;7.540;2022-09-01T06:01:08;14.75;;;13.65;;
15454;SDS011;21057;51.024;7.540;2022-09-01T06:03:37;14.43;;;13.52;;
15454;SDS011;21057;51.024;7.540;2022-09-01T06:06:06;15.27;;;14.32;;
15454;SDS011;21057;51.024;7.540;2022-09-01T06:08:36;14.55;;;13.73;;
15454;SDS011;21057;51.024;7.540;2022-09-01T06:11:08;15.35;;;14.45;;
15454;SDS011;21057;51.024;7.540;2022-09-01T06:13:44;14.95;;;14.15;;
15454;SDS011;21057;51.024;7.540;2022-09-01T06:16:12;15.55;;;14.65;;
15454;SDS011;21057;51.024;7.540;2022-09-01T06:18:40;15.45;;;14.40;;
15454;SDS011;21057;51.024;7.540;2022-09-01T06:21:08;15.18;;;14.27;;
15454;SDS011;21057;51.024;7.540;2022-09-01T06:23:39;14.93;;;14.13;;
15454;SDS011;21057;51.024;7.540;2022-09-01T06:26:16;14.77;;;13.88;;
15454;SDS011;21057;51.024;7.540;2022-09-01T06:28:44;14.35;;;13.45;;
15454;SDS011;21057;51.024;7.540;2022-09-01T06:31:16;14.30;;;13.40;;
15454;SDS011;21057;51.024;7.540;2022-09-01T06:33:49;14.20;;;13.40;;
15454;SDS011;21057;51.024;7.540;2022-09-01T06:36:17;14.20;;;13.40;;
15454;SDS011;21057;51.024;7.540;2022-09-01T06:38:46;14.40;;;13.60;;
15454;SDS011;21057;51.024;7.540;2022-09-01T06:41:18;15.15;;;14.13;;
15454;SDS011;21057;51.024;7.540;2022-09-01T06:43:57;14.50;;;13.70;;
15454;SDS011;21057;51.024;7.540;2022-09-01T06:46:24;14.63;;;13.73;;
15454;SDS011;21057;51.024;7.540;2022-09-01T06:48:53;13.50;;;12.70;;
15454;SDS011;21057;51.024;7.540;2022-09-01T06:51:25;13.40;;;12.63;;
15454;SDS011;21057;51.024;7.540;2022-09-01T06:53:54;13.30;;;12.60;;
15454;SDS011;21057;51.024;7.540;2022-09-01T06:56:26;13.00;;;12.10;;
15454;SDS011;21057;51.024;7.540;2022-09-01T06:58:55;13.43;;;12.73;;
15454;SDS011;21057;51.024;7.540;2022-09-01T07:01:23;13.68;;;12.88;;
15454;SDS011;21057;51.024;7.540;2022-09-01T07:03:52;13.80;;;12.68;;
15454;SDS011;21057;51.024;7.540;2022-09-01T07:06:20;13.50;;;12.70;;
15454;SDS011;21057;51.024;7.540;2022-09-01T07:08:51;14.50;;;13.50;;
15454;SDS011;21057;51.024;7.540;2022-09-01T07:11:20;13.27;;;12.55;;
15454;SDS011;21057;51.024;7.540;2022-09-01T07:13:54;13.85;;;13.15;;
15454;SDS011;21057;51.024;7.540;2022-09-01T07:16:25;14.20;;;13.40;;
15454;SDS011;21057;51.024;7.540;2022-09-01T07:19:03;14.50;;;13.70;;
15454;SDS011;21057;51.024;7.540;2022-09-01T07:21:30;13.82;;;13.13;;
15454;SDS011;21057;51.024;7.540;2022-09-01T07:23:57;14.25;;;13.45;;
15454;SDS011;21057;51.024;7.540;2022-09-01T07:29:02;13.77;;;13.07;;
15454;SDS011;21057;51.024;7.540;2022-09-01T07:31:31;14.43;;;13.63;;
15454;SDS011;21057;51.024;7.540;2022-09-01T07:34:03;14.32;;;13.52;;
15454;SDS011;21057;51.024;7.540;2022-09-01T07:36:37;15.30;;;14.40;;
15454;SDS011;21057;51.024;7.540;2022-09-01T07:39:06;15.20;;;14.30;;
15454;SDS011;21057;51.024;7.540;2022-09-01T07:41:33;14.85;;;13.95;;
15454;SDS011;21057;51.024;7.540;2022-09-01T07:44:02;15.30;;;14.35;;
15454;SDS011;21057;51.024;7.540;2022-09-01T07:46:32;15.27;;;14.38;;
15454;SDS011;21057;51.024;7.540;2022-09-01T07:48:59;15.05;;;14.05;;
15454;SDS011;21057;51.024;7.540;2022-09-01T07:51:27;16.20;;;14.93;;
15454;SDS011;21057;51.024;7.540;2022-09-01T07:53:56;15.05;;;14.25;;
15454;SDS011;21057;51.024;7.540;2022-09-01T07:56:32;15.40;;;14.57;;
15454;SDS011;21057;51.024;7.540;2022-09-01T07:58:59;14.43;;;13.63;;
15454;SDS011;21057;51.024;7.540;2022-09-01T08:01:27;15.88;;;14.70;;
15454;SDS011;21057;51.024;7.540;2022-09-01T08:03:55;14.85;;;13.95;;
15454;SDS011;21057;51.024;7.540;2022-09-01T08:06:24;15.23;;;14.27;;
15454;SDS011;21057;51.024;7.540;2022-09-01T08:08:53;14.60;;;13.80;;
15454;SDS011;21057;51.024;7.540;2022-09-01T08:11:22;14.68;;;13.88;;
15454;SDS011;21057;51.024;7.540;2022-09-01T08:13:51;15.15;;;14.25;;
15454;SDS011;21057;51.024;7.540;2022-09-01T08:16:18;15.20;;;14.27;;
15454;SDS011;21057;51.024;7.540;2022-09-01T08:18:47;16.27;;;15.13;;
15454;SDS011;21057;51.024;7.540;2022-09-01T08:21:14;14.90;;;14.00;;
15454;SDS011;21057;51.024;7.540;2022-09-01T08:23:46;15.20;;;14.20;;
15454;SDS011;21057;51.024;7.540;2022-09-01T08:26:14;15.73;;;14.82;;
15454;SDS011;21057;51.024;7.540;2022-09-01T08:28:42;14.70;;;13.90;;
15454;SDS011;21057;51.024;7.540;2022-09-01T08:31:10;14.60;;;13.80;;
15454;SDS011;21057;51.024;7.540;2022-09-01T08:36:11;15.23;;;14.23;;
15454;SDS011;21057;51.024;7.540;2022-09-01T08:38:39;14.50;;;13.60;;
15454;SDS011;21057;51.024;7.540;2022-09-01T08:41:15;15.30;;;14.30;;
15454;SDS011;21057;51.024;7.540;2022-09-01T08:43:51;14.20;;;13.50;;
15454;SDS011;21057;51.024;7.540;2022-09-01T08:46:28;14.32;;;13.52;;
15454;SDS011;21057;51.024;7.540;2022-09-01T08:48:59;14.38;;;13.57;;
15454;SDS011;21057;51.024;7.540;2022-09-01T08:51:35;14.95;;;14.10;;
15454;SDS011;21057;51.024;7.540;2022-09-01T08:54:09;13.95;;;13.15;;
15454;SDS011;21057;51.024;7.540;2022-09-01T08:56:50;14.30;;;13.50;;
15454;SDS011;21057;51.024;7.540;2022-09-01T08:59:20;14.43;;;13.63;;
15454;SDS011;21057;51.024;7.540;2022-09-01T09:01:48;14.80;;;13.90;;
15454;SDS011;21057;51.024;7.540;2022-09-01T09:04:24;15.57;;;14.77;;
15454;SDS011;21057;51.024;7.540;2022-09-01T09:07:13;15.23;;;14.43;;
15454;SDS011;21057;51.024;7.540;2022-09-01T09:09:56;15.80;;;14.90;;
15454;SDS011;21057;51.024;7.540;2022-09-01T09:12:48;14.90;;;14.10;;
15454;SDS011;21057;51.024;7.540;2022-09-01T09:15:31;15.23;;;14.23;;
15454;SDS011;21057;51.024;7.540;2022-09-01T09:18:08;15.80;;;14.90;;
15454;SDS011;21057;51.024;7.540;2022-09-01T09:20:41;15.52;;;14.57;;
15454;SDS011;21057;51.024;7.540;2022-09-01T09:23:15;14.82;;;13.93;;
15454;SDS011;21057;51.024;7.540;2022-09-01T09:26:03;15.38;;;14.48;;
15454;SDS011;21057;51.024;7.540;2022-09-01T09:31:29;14.75;;;13.95;;
15454;SDS011;21057;51.024;7.540;2022-09-01T09:37:23;14.90;;;14.02;;
15454;SDS011;21057;51.024;7.540;2022-09-01T09:42:59;14.63;;;13.82;;
15454;SDS011;21057;51.024;7.540;2022-09-01T09:45:30;14.70;;;13.90;;
15454;SDS011;21057;51.024;7.540;2022-09-01T09:47:59;14.95;;;14.15;;
15454;SDS011;21057;51.024;7.540;2022-09-01T09:53:15;15.60;;;14.73;;
15454;SDS011;21057;51.024;7.540;2022-09-01T09:56:14;14.50;;;13.70;;
15454;SDS011;21057;51.024;7.540;2022-09-01T09:58:43;14.90;;;14.00;;
15454;SDS011;21057;51.024;7.540;2022-09-01T10:01:13;15.35;;;14.55;;
15454;SDS011;21057;51.024;7.540;2022-09-01T10:03:54;14.60;;;13.80;;
15454;SDS011;21057;51.024;7.540;2022-09-01T10:06:30;14.30;;;13.40;;
15454;SDS011;21057;51.024;7.540;2022-09-01T10:09:00;14.85;;;14.05;;
15454;SDS011;21057;51.024;7.540;2022-09-01T10:11:39;14.95;;;14.05;;
15454;SDS011;21057;51.024;7.540;2022-09-01T10:14:13;14.40;;;13.50;;
15454;SDS011;21057;51.024;7.540;2022-09-01T10:16:46;14.57;;;13.73;;
15454;SDS011;21057;51.024;7.540;2022-09-01T10:19:27;14.68;;;13.68;;
15454;SDS011;21057;51.024;7.540;2022-09-01T10:22:04;15.73;;;14.50;;
15454;SDS011;21057;51.024;7.540;2022-09-01T10:24:35;14.18;;;13.38;;
15454;SDS011;21057;51.024;7.540;2022-09-01T10:27:06;15.63;;;14.73;;
15454;SDS011;21057;51.024;7.540;2022-09-01T10:29:42;16.48;;;15.52;;
15454;SDS011;21057;51.024;7.540;2022-09-01T10:32:12;15.20;;;14.30;;
15454;SDS011;21057;51.024;7.540;2022-09-01T10:34:43;15.70;;;14.80;;
15454;SDS011;21057;51.024;7.540;2022-09-01T10:37:12;15.02;;;14.23;;
15454;SDS011;21057;51.024;7.540;2022-09-01T10:47:51;15.80;;;14.90;;
15454;SDS011;21057;51.024;7.540;2022-09-01T10:50:25;15.90;;;15.00;;
15454;SDS011;21057;51.024;7.540;2022-09-01T10:55:40;16.33;;;15.32;;
15454;SDS011;21057;51.024;7.540;2022-09-01T10:58:34;16.60;;;15.55;;
15454;SDS011;21057;51.024;7.540;2022-09-01T11:01:11;15.57;;;14.68;;
15454;SDS011;21057;51.024;7.540;2022-09-01T11:03:49;15.35;;;14.50;;
15454;SDS011;21057;51.024;7.540;2022-09-01T11:06:31;15.40;;;14.50;;
15454;SDS011;21057;51.024;7.540;2022-09-01T11:09:38;16.10;;;15.10;;
15454;SDS011;21057;51.024;7.540;2022-09-01T11:15:37;15.23;;;14.43;;
15454;SDS011;21057;51.024;7.540;2022-09-01T11:18:09;16.23;;;15.30;;
15454;SDS011;21057;51.024;7.540;2022-09-01T11:23:21;15.70;;;14.80;;
15454;SDS011;21057;51.024;7.540;2022-09-01T11:25:51;14.38;;;13.55;;
15454;SDS011;21057;51.024;7.540;2022-09-01T11:31:21;14.88;;;13.98;;
15454;SDS011;21057;51.024;7.540;2022-09-01T11:33:54;14.63;;;13.82;;
15454;SDS011;21057;51.024;7.540;2022-09-01T11:36:31;15.07;;;14.27;;
15454;SDS011;21057;51.024;7.540;2022-09-01T11:39:05;15.43;;;14.45;;
15454;SDS011;21057;51.024;7.540;2022-09-01T11:41:48;15.40;;;14.50;;
15454;SDS011;21057;51.024;7.540;2022-09-01T11:44:21;15.15;;;14.25;;
15454;SDS011;21057;51.024;7.540;2022-09-01T11:46:52;15.32;;;14.43;;
15454;SDS011;21057;51.024;7.540;2022-09-01T11:49:26;15.48;;;14.57;;
15454;SDS011;21057;51.024;7.540;2022-09-01T11:51:55;14.55;;;13.75;;
15454;SDS011;21057;51.024;7.540;2022-09-01T11:57:15;16.08;;;15.18;;
15454;SDS011;21057;51.024;7.540;2022-09-01T12:02:32;15.38;;;14.48;;
15454;SDS011;21057;51.024;7.540;2022-09-01T12:05:02;15.85;;;14.70;;
15454;SDS011;21057;51.024;7.540;2022-09-01T12:07:49;15.30;;;14.48;;
15454;SDS011;21057;51.024;7.540;2022-09-01T12:10:18;16.58;;;15.68;;
15454;SDS011;21057;51.024;7.540;2022-09-01T12:12:47;16.20;;;15.15;;
15454;SDS011;21057;51.024;7.540;2022-09-01T12:15:18;16.30;;;15.30;;
15454;SDS011;21057;51.024;7.540;2022-09-01T12:17:49;15.82;;;14.80;;
15454;SDS011;21057;51.024;7.540;2022-09-01T12:20:18;16.17;;;15.27;;
15454;SDS011;21057;51.024;7.540;2022-09-01T12:22:50;16.23;;;15.32;;
15454;SDS011;21057;51.024;7.540;2022-09-01T12:25:18;16.00;;;15.10;;
15454;SDS011;21057;51.024;7.540;2022-09-01T12:27:47;16.48;;;15.55;;
15454;SDS011;21057;51.024;7.540;2022-09-01T12:30:15;16.25;;;15.35;;
15454;SDS011;21057;51.024;7.540;2022-09-01T12:32:53;15.57;;;14.77;;
15454;SDS011;21057;51.024;7.540;2022-09-01T12:35:23;15.57;;;14.68;;
15454;SDS011;21057;51.024;7.540;2022-09-01T12:37:51;16.63;;;15.63;;
15454;SDS011;21057;51.024;7.540;2022-09-01T12:40:50;15.82;;;14.93;;
15454;SDS011;21057;51.024;7.540;2022-09-01T12:43:29;16.45;;;15.55;;
15454;SDS011;21057;51.024;7.540;2022-09-01T12:45:57;16.38;;;15.48;;
15454;SDS011;21057;51.024;7.540;2022-09-01T12:48:40;16.30;;;15.40;;
15454;SDS011;21057;51.024;7.540;2022-09-01T12:51:14;16.27;;;15.38;;
15454;SDS011;21057;51.024;7.540;2022-09-01T12:53:51;16.75;;;15.65;;
15454;SDS011;21057;51.024;7.540;2022-09-01T12:56:22;16.33;;;15.32;;
15454;SDS011;21057;51.024;7.540;2022-09-01T12:59:03;16.20;;;15.07;;
15454;SDS011;21057;51.024;7.540;2022-09-01T13:01:33;15.73;;;14.85;;
15454;SDS011;21057;51.024;7.540;2022-09-01T13:04:10;15.73;;;14.82;;
15454;SDS011;21057;51.024;7.540;2022-09-01T13:06:40;15.93;;;15.02;;
15454;SDS011;21057;51.024;7.540;2022-09-01T13:09:21;16.23;;;15.18;;
15454;SDS011;21057;51.024;7.540;2022-09-01T13:14:43;16.10;;;15.20;;
15454;SDS011;21057;51.024;7.540;2022-09-01T13:17:10;15.75;;;14.95;;
15454;SDS011;21057;51.024;7.540;2022-09-01T13:19:40;16.48;;;15.50;;
15454;SDS011;21057;51.024;7.540;2022-09-01T13:22:07;15.80;;;14.90;;
15454;SDS011;21057;51.024;7.540;2022-09-01T13:24:34;16.25;;;15.13;;
15454;SDS011;21057;51.024;7.540;2022-09-01T13:27:01;16.58;;;15.68;;
15454;SDS011;21057;51.024;7.540;2022-09-01T13:29:29;15.85;;;15.05;;
15454;SDS011;21057;51.024;7.540;2022-09-01T13:31:56;16.63;;;15.50;;
15454;SDS011;21057;51.024;7.540;2022-09-01T13:34:23;15.90;;;15.10;;
15454;SDS011;21057;51.024;7.540;2022-09-01T13:36:51;16.00;;;15.10;;
15454;SDS011;21057;51.024;7.540;2022-09-01T13:39:18;15.88;;;15.05;;
15454;SDS011;21057;51.024;7.540;2022-09-01T13:41:46;16.15;;;15.15;;
15454;SDS011;21057;51.024;7.540;2022-09-01T13:44:13;16.17;;;15.30;;
15454;SDS011;21057;51.024;7.540;2022-09-01T13:46:40;15.60;;;14.80;;
15454;SDS011;21057;51.024;7.540;2022-09-01T13:49:08;15.43;;;14.63;;
15454;SDS011;21057;51.024;7.540;2022-09-01T13:51:35;15.77;;;14.82;;
15454;SDS011;21057;51.024;7.540;2022-09-01T13:54:04;15.55;;;14.73;;
15454;SDS011;21057;51.024;7.540;2022-09-01T13:56:31;16.25;;;15.18;;
15454;SDS011;21057;51.024;7.540;2022-09-01T13:58:59;15.98;;;15.10;;
15454;SDS011;21057;51.024;7.540;2022-09-01T14:01:26;15.52;;;14.73;;
15454;SDS011;21057;51.024;7.540;2022-09-01T14:03:53;15.15;;;14.35;;
15454;SDS011;21057;51.024;7.540;2022-09-01T14:06:21;15.73;;;14.52;;
15454;SDS011;21057;51.024;7.540;2022-09-01T14:08:48;15.25;;;14.35;;
15454;SDS011;21057;51.024;7.540;2022-09-01T14:11:16;16.25;;;15.35;;
15454;SDS011;21057;51.024;7.540;2022-09-01T14:13:44;15.80;;;14.90;;
15454;SDS011;21057;51.024;7.540;2022-09-01T14:16:13;15.93;;;15.02;;
15454;SDS011;21057;51.024;7.540;2022-09-01T14:18:41;16.02;;;15.02;;
15454;SDS011;21057;51.024;7.540;2022-09-01T14:21:11;15.25;;;14.45;;
15454;SDS011;21057;51.024;7.540;2022-09-01T14:23:40;15.15;;;14.35;;
15454;SDS011;21057;51.024;7.540;2022-09-01T14:26:07;14.65;;;13.85;;
15454;SDS011;21057;51.024;7.540;2022-09-01T14:28:37;14.68;;;13.52;;
15454;SDS011;21057;51.024;7.540;2022-09-01T14:31:06;14.65;;;13.85;;
15454;SDS011;21057;51.024;7.540;2022-09-01T14:33:35;16.42;;;14.98;;
15454;SDS011;21057;51.024;7.540;2022-09-01T14:36:05;15.18;;;14.30;;
15454;SDS011;21057;51.024;7.540;2022-09-01T14:38:33;14.77;;;13.98;;
15454;SDS011;21057;51.024;7.540;2022-09-01T14:41:00;14.73;;;13.90;;
15454;SDS011;21057;51.024;7.540;2022-09-01T14:43:27;15.30;;;14.40;;
15454;SDS011;21057;51.024;7.540;2022-09-01T14:46:05;15.52;;;14.63;;
15454;SDS011;21057;51.024;7.540;2022-09-01T14:48:34;15.07;;;14.23;;
15454;SDS011;21057;51.024;7.540;2022-09-01T14:51:02;14.65;;;13.85;;
15454;SDS011;21057;51.024;7.540;2022-09-01T14:53:29;16.20;;;15.30;;
15454;SDS011;21057;51.024;7.540;2022-09-01T14:55:58;15.85;;;14.75;;
15454;SDS011;21057;51.024;7.540;2022-09-01T14:58:27;16.42;;;15.10;;
15454;SDS011;21057;51.024;7.540;2022-09-01T15:00:55;15.32;;;14.30;;
15454;SDS011;21057;51.024;7.540;2022-09-01T15:03:24;15.20;;;14.38;;
15454;SDS011;21057;51.024;7.540;2022-09-01T15:05:52;14.65;;;13.85;;
15454;SDS011;21057;51.024;7.540;2022-09-01T15:08:20;14.90;;;14.00;;
15454;SDS011;21057;51.024;7.540;2022-09-01T15:13:17;15.25;;;14.45;;
15454;SDS011;21057;51.024;7.540;2022-09-01T15:15:45;15.80;;;14.90;;
15454;SDS011;21057;51.024;7.540;2022-09-01T15:18:12;15.20;;;14.40;;
15454;SDS011;21057;51.024;7.540;2022-09-01T15:20:41;15.05;;;14.25;;
15454;SDS011;21057;51.024;7.540;2022-09-01T15:23:11;15.25;;;14.30;;
15454;SDS011;21057;51.024;7.540;2022-09-01T15:25:39;15.15;;;14.27;;
15454;SDS011;21057;51.024;7.540;2022-09-01T15:28:07;14.82;;;14.02;;
15454;SDS011;21057;51.024;7.540;2022-09-01T15:30:34;15.30;;;14.30;;
15454;SDS011;21057;51.024;7.540;2022-09-01T15:33:03;14.70;;;13.90;;
15454;SDS011;21057;51.024;7.540;2022-09-01T15:35:43;15.30;;;14.40;;
15454;SDS011;21057;51.024;7.540;2022-09-01T15:38:11;14.88;;;14.07;;
15454;SDS011;21057;51.024;7.540;2022-09-01T15:40:39;15.18;;;14.27;;